Observations for BRISTOL LULSGATE, United Kingdom (EGGD)

EGGD 201950Z 19012KT 150V220 9999 FEW012 SCT020 09/06 Q1019 
EGGD 201920Z AUTO 18013KT 9999 FEW022 09/07 Q1019   
EGGD 201850Z 18012KT 9999 FEW024 09/07 Q1019
EGGD 201850Z AUTO 18011KT 9999 BKN020 09/07 Q1019
EGGD 201820Z AUTO 19011KT 9999 FEW010 BKN018 OVC023 09/07 Q1019 
EGGD 201750Z AUTO 19011KT 9999 FEW012 OVC021 09/07 Q1019
EGGD 201720Z AUTO 20013KT 9999 FEW009 OVC021 09/07 Q1018
EGGD 201650Z AUTO 20011KT 9999 SCT009 BKN014 BKN018 09/07 Q1018 
EGGD 201620Z 19014KT 9999 FEW010 SCT026 09/07 Q1018 
EGGD 201550Z 19013KT 9999 VCSH FEW010 SCT022 09/07 Q1018
EGGD 201520Z 20012KT 9999 VCSH FEW010 SCT027 09/07 Q1018
EGGD 201450Z 19013KT 9999 SCT011 SCT030 09/07 Q1018 
EGGD 201420Z 19015KT 9999 BKN017 10/07 Q1018
EGGD 201350Z 18013KT 9999 SCT013 SCT022 10/07 Q1018 
EGGD 201320Z AUTO 18013KT 9999 SCT014 BKN026 BKN030 10/07 Q1018 
EGGD 201250Z AUTO 19014KT 9999 FEW015 SCT020 BKN028 10/07 Q1018 
EGGD 201220Z AUTO 20012KT 9999 SCT018 SCT027 OVC033 10/07 Q1018 
EGGD 201150Z AUTO 20013KT 9999 BKN022 OVC031 10/06 Q1018
EGGD 201120Z AUTO 20011KT 9999 FEW021 OVC027 10/06 Q1018
EGGD 201050Z AUTO 20009KT 160V220 9999 SCT014 BKN020 OVC030 09/06 Q1018 
EGGD 201020Z 20010KT 9999 FEW012 SCT020 09/06 Q1018 
EGGD 200950Z AUTO 19008KT 160V220 9999 SCT014 BKN020 09/06 Q1018
EGGD 200920Z AUTO 20011KT 9999 BKN012 09/06 Q1017   
EGGD 200850Z AUTO 20009KT 9999 BKN011 BKN020 08/06 Q1017
EGGD 200820Z AUTO 20009KT 9999 BKN010 08/06 Q1017   
EGGD 200750Z AUTO 20008KT 9999 BKN008 OVC032 08/06 Q1017
EGGD 200720Z AUTO 20009KT 9999 BKN007 OVC011 08/06 Q1016
EGGD 200650Z AUTO 19008KT 150V220 9999 BKN008 BKN014 OVC025 08/06 Q1016 
EGGD 200620Z AUTO 20007KT 9999 SCT007 BKN025 08/06 Q1016
EGGD 200550Z AUTO 18009KT 9999 FEW004 SCT007 OVC023 08/06 Q1016 
EGGD 200520Z AUTO 20008KT 9999 OVC024 08/06 Q1016   
EGGD 200450Z AUTO 21009KT 9999 FEW029 08/05 Q1016   
EGGD 200420Z AUTO 21009KT 9999 NCD 08/05 Q1016  
EGGD 200350Z AUTO 20009KT 9999 FEW015 08/05 Q1016   
EGGD 200320Z AUTO 20009KT 9999 NCD 08/05 Q1016  
EGGD 200250Z AUTO 20009KT 9999 FEW014 SCT033 08/05 Q1016
EGGD 200220Z AUTO 20009KT 9999 FEW014 SCT027 08/05 Q1017
EGGD 200150Z AUTO 20008KT 9999 FEW020 SCT030 08/05 Q1017
EGGD 200120Z AUTO 21010KT 9999 BKN018 BKN031 08/05 Q1017
EGGD 200050Z AUTO 20009KT 9999 NCD 08/05 Q1017  
EGGD 200020Z AUTO 19008KT 9999 BKN026 BKN037 08/05 Q1017
EGGD 192350Z AUTO 20009KT 9999 BKN027 BKN031 07/05 Q1017
EGGD 192320Z AUTO 21007KT 9999 BKN025 BKN031 07/05 Q1017
EGGD 192250Z AUTO 20009KT 9999 SCT027 BKN032 07/05 Q1017
EGGD 192220Z AUTO 20009KT 9999 NCD 07/05 Q1017  
EGGD 192150Z AUTO 20009KT 9999 NCD 07/04 Q1017  
EGGD 192120Z AUTO 19010KT 9999 NCD 07/04 Q1017  
EGGD 192050Z AUTO 20009KT 9999 FEW041 07/04 Q1017   
EGGD 192020Z AUTO 20009KT 9999 BKN039 07/04 Q1017   
EGGD 191950Z AUTO 20009KT 9999 FEW042 07/04 Q1017   
EGGD 191920Z AUTO 20009KT 9999 NCD 07/04 Q1017